Wheatland, North Dakota
Current Conditions -  °F | °C
As of 1:53 AM on Monday 26 Jan 2015 (Local Time) from KFAR Reporting Station
Broken Clouds Broken Clouds  
Wind Chill: 22°   Ceiling: 12000
Heat Index: 31°   Visibility: 10mi
Dew Point: 27°   Wind: 12mph
Humidity: 85%   Direction: 200°SSW
Pressure: 29.7"   Gusts: NA
Location:  46.91°N, 97.34°W
Report Text: KFAR 260753Z 20010KT 10SM BKN120 M01/M03 A2970 RMK AO2 PK WND 18026/0657 SLP070 T10061028
Loading
Personal Weather Stations






























Interactive Weather Map New forecast layout! Learn more

10-Day Weather Forecast

Advertisements
Track Severe Weather on mobile